Time,TemperatureF,DewpointF,PressureIn,WindDirection,WindDirectionDegrees,WindSpeedMPH,WindSpeedGustMPH,Humidity,HourlyPrecipIn,Conditions,Clouds,dailyrainin,SoftwareType,DateUTC
2013-05-12 00:01:00,63.0,35.0,30.14,North,360,0.0,5.0,35,0.00,,,0.00,,2013-05-12 06:01:00,
2013-05-12 00:11:00,63.0,35.0,30.14,North,360,0.0,5.0,35,0.00,,,0.00,,2013-05-12 06:11:00,
2013-05-12 00:21:00,64.0,35.0,30.15,North,360,0.0,0.0,34,0.00,,,0.00,,2013-05-12 06:21:00,
2013-05-12 00:31:00,61.0,36.0,30.15,North,360,0.0,0.0,39,0.00,,,0.00,,2013-05-12 06:31:00,
2013-05-12 00:41:00,61.0,36.0,30.15,North,360,0.0,0.0,39,0.00,,,0.00,,2013-05-12 06:41:00,
2013-05-12 00:52:00,60.0,37.0,30.16,North,360,0.0,0.0,43,0.00,,,0.00,,2013-05-12 06:52:00,
2013-05-12 01:01:00,58.0,36.0,30.15,North,360,0.0,0.0,43,0.00,,,0.00,,2013-05-12 07:01:00,
2013-05-12 01:11:00,58.0,36.0,30.15,North,360,0.0,0.0,43,0.00,,,0.00,,2013-05-12 07:11:00,
2013-05-12 01:21:00,60.0,36.0,30.16,North,360,0.0,2.0,41,0.00,,,0.00,,2013-05-12 07:21:00,
2013-05-12 01:32:00,62.0,35.0,30.16,North,360,0.0,5.0,37,0.00,,,0.00,,2013-05-12 07:32:00,
2013-05-12 01:42:00,62.0,35.0,30.16,North,360,0.0,5.0,37,0.00,,,0.00,,2013-05-12 07:42:00,
2013-05-12 01:52:00,61.0,35.0,30.15,North,360,0.0,0.0,38,0.00,,,0.00,,2013-05-12 07:52:00,
2013-05-12 02:01:00,59.0,34.0,30.15,North,360,0.0,0.0,39,0.00,,,0.00,,2013-05-12 08:01:00,
2013-05-12 02:11:00,59.0,34.0,30.15,North,360,0.0,0.0,39,0.00,,,0.00,,2013-05-12 08:11:00,
2013-05-12 02:21:00,55.0,34.0,30.16,North,360,0.0,0.0,45,0.00,,,0.00,,2013-05-12 08:21:00,
2013-05-12 02:31:00,54.0,34.0,30.15,North,360,0.0,0.0,47,0.00,,,0.00,,2013-05-12 08:31:00,
2013-05-12 03:01:00,51.0,33.0,30.15,North,360,0.0,0.0,50,0.00,,,0.00,,2013-05-12 09:01:00,
2013-05-12 03:32:00,55.0,34.0,30.14,North,360,0.0,0.0,45,0.00,,,0.00,,2013-05-12 09:32:00,
2013-05-12 03:42:00,55.0,34.0,30.14,North,360,0.0,0.0,45,0.00,,,0.00,,2013-05-12 09:42:00,
2013-05-12 03:53:00,53.0,33.0,30.14,North,360,0.0,0.0,47,0.00,,,0.00,,2013-05-12 09:53:00,
2013-05-12 04:02:00,54.0,34.0,30.14,North,360,0.0,0.0,46,0.00,,,0.00,,2013-05-12 10:02:00,
2013-05-12 04:12:00,54.0,34.0,30.14,North,360,0.0,0.0,46,0.00,,,0.00,,2013-05-12 10:12:00,
2013-05-12 04:22:00,54.0,34.0,30.14,North,360,0.0,0.0,46,0.00,,,0.00,,2013-05-12 10:22:00,
2013-05-12 04:32:00,53.0,34.0,30.14,North,360,0.0,0.0,48,0.00,,,0.00,,2013-05-12 10:32:00,
2013-05-12 04:42:00,53.0,34.0,30.14,North,360,0.0,0.0,48,0.00,,,0.00,,2013-05-12 10:42:00,
2013-05-12 04:52:00,53.0,35.0,30.14,North,360,0.0,0.0,50,0.00,,,0.00,,2013-05-12 10:52:00,
2013-05-12 05:02:00,53.0,34.0,30.15,North,360,0.0,0.0,49,0.00,,,0.00,,2013-05-12 11:02:00,
2013-05-12 05:11:00,53.0,34.0,30.15,North,360,0.0,0.0,49,0.00,,,0.00,,2013-05-12 11:11:00,
2013-05-12 05:21:00,53.0,34.0,30.14,North,360,0.0,0.0,49,0.00,,,0.00,,2013-05-12 11:21:00,
2013-05-12 05:31:00,53.0,34.0,30.14,North,360,0.0,0.0,49,0.00,,,0.00,,2013-05-12 11:31:00,
2013-05-12 05:41:00,53.0,34.0,30.14,North,360,0.0,0.0,49,0.00,,,0.00,,2013-05-12 11:41:00,
2013-05-12 05:52:00,54.0,35.0,30.14,North,360,0.0,0.0,48,0.00,,,0.00,,2013-05-12 11:52:00,
2013-05-12 06:01:00,53.0,34.0,30.15,North,360,0.0,0.0,48,0.00,,,0.00,,2013-05-12 12:01:00,
2013-05-12 06:11:00,53.0,34.0,30.15,North,360,0.0,0.0,48,0.00,,,0.00,,2013-05-12 12:11:00,
2013-05-12 06:21:00,53.0,34.0,30.15,North,360,0.0,0.0,49,0.00,,,0.00,,2013-05-12 12:21:00,
2013-05-12 06:31:00,53.0,34.0,30.15,North,360,0.0,0.0,49,0.00,,,0.00,,2013-05-12 12:31:00,
2013-05-12 06:41:00,53.0,34.0,30.15,North,360,0.0,0.0,49,0.00,,,0.00,,2013-05-12 12:41:00,
2013-05-12 06:52:00,50.0,34.0,30.15,North,360,0.0,0.0,53,0.00,,,0.00,,2013-05-12 12:52:00,
2013-05-12 07:01:00,51.0,34.0,30.15,North,360,0.0,0.0,52,0.00,,,0.00,,2013-05-12 13:01:00,
2013-05-12 07:11:00,51.0,34.0,30.15,North,360,0.0,0.0,52,0.00,,,0.00,,2013-05-12 13:11:00,
2013-05-12 07:21:00,52.0,35.0,30.15,North,360,0.0,0.0,53,0.00,,,0.00,,2013-05-12 13:21:00,
2013-05-12 07:31:00,55.0,35.0,30.16,North,360,0.0,0.0,46,0.00,,,0.00,,2013-05-12 13:31:00,
2013-05-12 07:41:00,55.0,35.0,30.16,North,360,0.0,0.0,46,0.00,,,0.00,,2013-05-12 13:41:00,
2013-05-12 07:52:00,59.0,36.0,30.15,North,360,0.0,0.0,42,0.00,,,0.00,,2013-05-12 13:52:00,
2013-05-12 08:01:00,61.0,36.0,30.15,NNE,32,2.0,6.0,39,0.00,,,0.00,,2013-05-12 14:01:00,
2013-05-12 08:11:00,61.0,36.0,30.15,NNE,32,2.0,6.0,39,0.00,,,0.00,,2013-05-12 14:11:00,
2013-05-12 08:21:00,62.0,36.0,30.15,NE,54,4.0,6.0,38,0.00,,,0.00,,2013-05-12 14:21:00,
2013-05-12 08:31:00,62.0,37.0,30.16,ENE,77,6.0,8.0,39,0.00,,,0.00,,2013-05-12 14:31:00,
2013-05-12 08:41:00,63.0,37.0,30.15,ESE,111,7.0,9.0,38,0.00,,,0.00,,2013-05-12 14:41:00,
2013-05-12 08:52:00,63.0,37.0,30.15,ESE,111,7.0,9.0,38,0.00,,,0.00,,2013-05-12 14:52:00,
2013-05-12 09:01:00,64.0,36.0,30.15,SE,140,7.0,10.0,35,0.00,,,0.00,,2013-05-12 15:01:00,
2013-05-12 09:11:00,64.0,36.0,30.15,SE,140,7.0,10.0,35,0.00,,,0.00,,2013-05-12 15:11:00,
2013-05-12 09:21:00,64.0,37.0,30.15,SE,124,6.0,9.0,37,0.00,,,0.00,,2013-05-12 15:21:00,
2013-05-12 09:33:00,65.0,37.0,30.15,ESE,119,7.0,9.0,35,0.00,,,0.00,,2013-05-12 15:33:00,
2013-05-12 09:42:00,65.0,37.0,30.15,ESE,119,7.0,9.0,35,0.00,,,0.00,,2013-05-12 15:42:00,
2013-05-12 09:53:00,65.0,36.0,30.14,SE,124,7.0,9.0,34,0.00,,,0.00,,2013-05-12 15:53:00,
2013-05-12 10:02:00,66.0,37.0,30.14,SE,136,7.0,10.0,34,0.00,,,0.00,,2013-05-12 16:02:00,
2013-05-12 10:12:00,66.0,37.0,30.14,SE,136,7.0,10.0,34,0.00,,,0.00,,2013-05-12 16:12:00,
2013-05-12 10:23:00,67.0,37.0,30.14,ESE,123,8.0,12.0,33,0.00,,,0.00,,2013-05-12 16:23:00,
2013-05-12 10:32:00,68.0,38.0,30.14,SE,141,6.0,10.0,33,0.00,,,0.00,,2013-05-12 16:32:00,
2013-05-12 10:42:00,68.0,38.0,30.14,SE,141,6.0,10.0,33,0.00,,,0.00,,2013-05-12 16:42:00,
2013-05-12 10:52:00,69.0,36.0,30.13,SE,140,6.0,12.0,30,0.00,,,0.00,,2013-05-12 16:52:00,
2013-05-12 11:01:00,70.0,36.0,30.13,SE,139,8.0,14.0,29,0.00,,,0.00,,2013-05-12 17:01:00,
2013-05-12 11:11:00,70.0,36.0,30.13,SE,139,8.0,14.0,29,0.00,,,0.00,,2013-05-12 17:11:00,
2013-05-12 11:22:00,72.0,37.0,30.12,SE,134,7.0,12.0,28,0.00,,,0.00,,2013-05-12 17:22:00,
2013-05-12 11:32:00,72.0,36.0,30.12,SE,127,7.0,12.0,27,0.00,,,0.00,,2013-05-12 17:32:00,
2013-05-12 11:42:00,72.0,36.0,30.12,SE,127,7.0,12.0,27,0.00,,,0.00,,2013-05-12 17:42:00,
2013-05-12 11:52:00,73.0,38.0,30.11,East,86,6.0,12.0,28,0.00,,,0.00,,2013-05-12 17:52:00,
2013-05-12 12:01:00,74.0,39.0,30.10,ESE,109,5.0,10.0,28,0.00,,,0.00,,2013-05-12 18:01:00,
2013-05-12 12:12:00,74.0,39.0,30.10,ESE,109,5.0,10.0,28,0.00,,,0.00,,2013-05-12 18:12:00,
2013-05-12 12:22:00,75.0,37.0,30.09,SSE,147,7.0,13.0,25,0.00,,,0.00,,2013-05-12 18:22:00,
2013-05-12 12:31:00,76.0,36.0,30.09,SSE,148,7.0,11.0,23,0.00,,,0.00,,2013-05-12 18:31:00,
2013-05-12 12:41:00,76.0,36.0,30.09,SSE,148,7.0,11.0,23,0.00,,,0.00,,2013-05-12 18:41:00,
2013-05-12 12:52:00,77.0,37.0,30.09,ESE,110,3.0,10.0,24,0.00,,,0.00,,2013-05-12 18:52:00,
2013-05-12 13:01:00,77.0,35.0,30.08,ENE,74,0.0,7.0,22,0.00,,,0.00,,2013-05-12 19:01:00,
2013-05-12 13:11:00,77.0,35.0,30.08,ENE,74,0.0,7.0,22,0.00,,,0.00,,2013-05-12 19:11:00,
2013-05-12 13:21:00,78.0,35.0,30.08,East,90,2.0,7.0,21,0.00,,,0.00,,2013-05-12 19:21:00,
2013-05-12 13:31:00,78.0,35.0,30.07,SSW,200,8.0,12.0,21,0.00,,,0.00,,2013-05-12 19:31:00,
2013-05-12 13:41:00,78.0,35.0,30.07,SW,232,1.0,12.0,21,0.00,,,0.00,,2013-05-12 19:41:00,
2013-05-12 13:52:00,78.0,35.0,30.07,SW,232,1.0,12.0,21,0.00,,,0.00,,2013-05-12 19:52:00,
2013-05-12 14:01:00,80.0,38.0,30.06,ESE,117,4.0,11.0,22,0.00,,,0.00,,2013-05-12 20:01:00,
2013-05-12 14:11:00,80.0,38.0,30.06,ESE,117,4.0,11.0,22,0.00,,,0.00,,2013-05-12 20:11:00,
2013-05-12 14:21:00,80.0,35.0,30.06,SSE,160,4.0,11.0,20,0.00,,,0.00,,2013-05-12 20:21:00,
2013-05-12 14:32:00,81.0,35.0,30.05,South,171,9.0,15.0,19,0.00,,,0.00,,2013-05-12 20:32:00,
2013-05-12 14:41:00,81.0,35.0,30.05,South,171,9.0,15.0,19,0.00,,,0.00,,2013-05-12 20:41:00,
2013-05-12 14:52:00,82.0,36.0,30.05,WNW,287,12.0,19.0,19,0.00,,,0.00,,2013-05-12 20:52:00,
2013-05-12 15:01:00,82.0,36.0,30.04,WNW,301,9.0,19.0,19,0.00,,,0.00,,2013-05-12 21:01:00,
2013-05-12 15:11:00,82.0,36.0,30.04,WNW,301,9.0,19.0,19,0.00,,,0.00,,2013-05-12 21:11:00,
2013-05-12 15:21:00,82.0,36.0,30.03,NW,306,7.0,16.0,19,0.00,,,0.00,,2013-05-12 21:21:00,
2013-05-12 15:32:00,83.0,36.0,30.03,West,279,11.0,14.0,19,0.00,,,0.00,,2013-05-12 21:32:00,
2013-05-12 15:42:00,83.0,36.0,30.03,West,279,11.0,14.0,19,0.00,,,0.00,,2013-05-12 21:42:00,
2013-05-12 15:53:00,83.0,35.0,30.03,WSW,254,10.0,18.0,18,0.00,,,0.00,,2013-05-12 21:53:00,
2013-05-12 16:02:00,83.0,34.0,30.02,WNW,298,18.0,25.0,17,0.00,,,0.00,,2013-05-12 22:02:00,
2013-05-12 16:12:00,83.0,34.0,30.02,WNW,298,18.0,25.0,17,0.00,,,0.00,,2013-05-12 22:12:00,
2013-05-12 16:22:00,83.0,34.0,30.02,NW,304,18.0,26.0,17,0.00,,,0.00,,2013-05-12 22:22:00,
2013-05-12 16:32:00,84.0,33.0,30.01,West,277,20.0,28.0,16,0.00,,,0.00,,2013-05-12 22:32:00,
2013-05-12 16:42:00,84.0,33.0,30.01,West,277,20.0,28.0,16,0.00,,,0.00,,2013-05-12 22:42:00,
2013-05-12 16:52:00,85.0,32.0,30.01,West,264,13.0,27.0,15,0.00,,,0.00,,2013-05-12 22:52:00,
2013-05-12 17:02:00,84.0,33.0,30.01,NNW,329,15.0,27.0,16,0.00,,,0.00,,2013-05-12 23:02:00,
2013-05-12 17:11:00,84.0,33.0,30.01,NNW,329,15.0,27.0,16,0.00,,,0.00,,2013-05-12 23:11:00,
2013-05-12 17:22:00,84.0,33.0,30.01,WNW,301,14.0,21.0,16,0.00,,,0.00,,2013-05-12 23:22:00,
2013-05-12 17:32:00,84.0,33.0,30.00,WSW,244,11.0,18.0,16,0.00,,,0.00,,2013-05-12 23:32:00,
2013-05-12 17:42:00,84.0,33.0,30.00,WSW,244,11.0,18.0,16,0.00,,,0.00,,2013-05-12 23:42:00,
2013-05-12 17:52:00,84.0,33.0,30.00,SW,225,8.0,16.0,16,0.00,,,0.00,,2013-05-12 23:52:00,
2013-05-12 18:01:00,84.0,33.0,30.00,WNW,298,10.0,14.0,16,0.00,,,0.00,,2013-05-13 00:01:00,
2013-05-12 18:11:00,84.0,33.0,30.00,WNW,298,10.0,14.0,16,0.00,,,0.00,,2013-05-13 00:11:00,
2013-05-12 18:21:00,84.0,33.0,29.99,West,265,12.0,19.0,16,0.00,,,0.00,,2013-05-13 00:21:00,
2013-05-12 18:32:00,84.0,34.0,29.99,WSW,250,6.0,13.0,17,0.00,,,0.00,,2013-05-13 00:32:00,
2013-05-12 18:41:00,84.0,34.0,29.99,WSW,250,6.0,13.0,17,0.00,,,0.00,,2013-05-13 00:41:00,
2013-05-12 18:51:00,83.0,34.0,29.98,WNW,286,5.0,9.0,17,0.00,,,0.00,,2013-05-13 00:51:00,
2013-05-12 19:01:00,83.0,32.0,29.98,WNW,288,10.0,14.0,16,0.00,,,0.00,,2013-05-13 01:01:00,
2013-05-12 19:11:00,83.0,32.0,29.98,WNW,288,10.0,14.0,16,0.00,,,0.00,,2013-05-13 01:11:00,
2013-05-12 19:21:00,82.0,31.0,29.98,West,277,5.0,12.0,16,0.00,,,0.00,,2013-05-13 01:21:00,
2013-05-12 19:31:00,81.0,32.0,29.98,West,275,6.0,8.0,17,0.00,,,0.00,,2013-05-13 01:31:00,
2013-05-12 19:41:00,81.0,32.0,29.98,West,275,6.0,8.0,17,0.00,,,0.00,,2013-05-13 01:41:00,
2013-05-12 19:52:00,81.0,33.0,29.98,West,274,4.0,6.0,18,0.00,,,0.00,,2013-05-13 01:52:00,
2013-05-12 20:01:00,79.0,33.0,29.98,West,271,6.0,7.0,19,0.00,,,0.00,,2013-05-13 02:01:00,
2013-05-12 20:11:00,79.0,33.0,29.98,West,271,6.0,7.0,19,0.00,,,0.00,,2013-05-13 02:11:00,
2013-05-12 20:21:00,78.0,34.0,29.98,West,260,6.0,8.0,20,0.00,,,0.00,,2013-05-13 02:21:00,
2013-05-12 20:31:00,77.0,33.0,29.98,WNW,295,6.0,8.0,20,0.00,,,0.00,,2013-05-13 02:31:00,
2013-05-12 20:41:00,77.0,33.0,29.98,WNW,295,6.0,8.0,20,0.00,,,0.00,,2013-05-13 02:41:00,
2013-05-12 20:52:00,76.0,34.0,29.98,WNW,290,1.0,6.0,22,0.00,,,0.00,,2013-05-13 02:52:00,
2013-05-12 21:01:00,72.0,35.0,29.98,WNW,296,3.0,5.0,26,0.00,,,0.00,,2013-05-13 03:01:00,
2013-05-12 21:11:00,72.0,35.0,29.98,WNW,296,3.0,5.0,26,0.00,,,0.00,,2013-05-13 03:11:00,
2013-05-12 21:21:00,69.0,35.0,29.98,NNW,332,1.0,5.0,28,0.00,,,0.00,,2013-05-13 03:21:00,
2013-05-12 21:32:00,67.0,35.0,29.99,NNW,332,1.0,2.0,31,0.00,,,0.00,,2013-05-13 03:32:00,
2013-05-12 21:53:00,71.0,33.0,29.99,NW,326,0.0,5.0,25,0.00,,,0.00,,2013-05-13 03:53:00,
2013-05-12 22:02:00,67.0,35.0,29.99,NW,326,0.0,0.0,30,0.00,,,0.00,,2013-05-13 04:02:00,
2013-05-12 22:12:00,67.0,35.0,29.99,NW,326,0.0,0.0,30,0.00,,,0.00,,2013-05-13 04:12:00,
2013-05-12 22:32:00,63.0,34.0,30.00,NNW,327,0.0,6.0,34,0.00,,,0.00,,2013-05-13 04:32:00,
2013-05-12 22:52:00,68.0,37.0,29.99,NW,306,3.0,8.0,32,0.00,,,0.00,,2013-05-13 04:52:00,
2013-05-12 23:02:00,73.0,39.0,29.99,West,265,10.0,13.0,29,0.00,,,0.00,,2013-05-13 05:02:00,
2013-05-12 23:11:00,73.0,39.0,29.99,West,265,10.0,13.0,29,0.00,,,0.00,,2013-05-13 05:11:00,
2013-05-12 23:21:00,72.0,38.0,29.99,West,260,6.0,12.0,29,0.00,,,0.00,,2013-05-13 05:21:00,
2013-05-12 23:32:00,72.0,38.0,30.00,WSW,254,8.0,12.0,29,0.00,,,0.00,,2013-05-13 05:32:00,
2013-05-12 23:42:00,72.0,38.0,30.00,WSW,254,8.0,12.0,29,0.00,,,0.00,,2013-05-13 05:42:00,
2013-05-12 23:52:00,73.0,39.0,30.00,West,266,8.0,10.0,29,0.00,,,0.00,,2013-05-13 05:52:00,